Time;durP1;ratioP1;P1;durP2;ratioP2;P2;SDS_P1;SDS_P2;PMS_P1;PMS_P2;Temp;Humidity;BMP_temperature;BMP_pressure;BME280_temperature;BME280_humidity;BME280_pressure;Samples;Min_cycle;Max_cycle;Signal;HPM_P1;HPM_P2
2022/10/28 00:01:16;;;;;;;13.43;8.95;;;11.90;79.90;;;;;;5073505;28;20016;-16
2022/10/28 00:03:48;;;;;;;14.02;8.75;;;11.90;80.00;;;;;;5073830;28;20060;-18
2022/10/28 00:06:20;;;;;;;14.20;7.55;;;11.80;80.00;;;;;;5073716;28;20025;-18
2022/10/28 00:08:47;;;;;;;14.50;9.02;;;11.80;80.10;;;;;;5072105;28;20127;-16
2022/10/28 00:11:15;;;;;;;10.95;6.85;;;11.80;80.10;;;;;;5073409;28;20074;-18
2022/10/28 00:13:43;;;;;;;14.48;7.47;;;11.80;80.10;;;;;;5073234;28;20024;-18
2022/10/28 00:16:13;;;;;;;16.98;9.60;;;11.80;80.20;;;;;;5073561;28;20491;-17
2022/10/28 00:18:39;;;;;;;12.88;8.23;;;11.70;80.20;;;;;;5072875;28;20055;-18
2022/10/28 00:21:15;;;;;;;15.70;9.10;;;11.70;80.20;;;;;;5073628;28;20060;-17
2022/10/28 00:23:42;;;;;;;13.63;7.88;;;11.70;80.20;;;;;;5073475;28;20031;-16
2022/10/28 00:26:15;;;;;;;24.27;12.48;;;11.70;80.30;;;;;;5073306;28;20025;-17
2022/10/28 00:28:46;;;;;;;18.15;10.45;;;11.70;80.30;;;;;;5073178;28;20079;-18
2022/10/28 00:31:14;;;;;;;17.75;11.10;;;11.70;80.60;;;;;;5072967;28;20099;-18
2022/10/28 00:33:41;;;;;;;18.00;10.13;;;11.70;80.50;;;;;;5073346;28;20375;-17
2022/10/28 00:36:12;;;;;;;20.13;11.88;;;11.70;80.60;;;;;;5073011;28;20029;-16
2022/10/28 00:38:38;;;;;;;20.25;12.50;;;11.60;80.60;;;;;;5072787;28;20483;-18
2022/10/28 00:41:05;;;;;;;19.80;10.98;;;11.60;80.60;;;;;;5072792;28;20373;-17
2022/10/28 00:43:35;;;;;;;16.45;9.80;;;11.60;80.80;;;;;;5073367;28;20048;-17
2022/10/28 00:46:05;;;;;;;16.08;9.52;;;11.60;80.70;;;;;;5073153;28;20511;-16
2022/10/28 00:48:31;;;;;;;18.75;10.23;;;11.60;80.80;;;;;;5073147;28;20387;-17
2022/10/28 00:50:58;;;;;;;19.20;10.55;;;11.60;80.90;;;;;;5072731;28;20063;-18
2022/10/28 00:53:28;;;;;;;20.50;11.52;;;11.50;80.90;;;;;;5073056;28;20021;-17
2022/10/28 00:55:56;;;;;;;19.63;11.40;;;11.50;80.90;;;;;;5072742;28;20392;-16
2022/10/28 00:58:23;;;;;;;18.83;10.60;;;11.50;81.00;;;;;;5072973;28;20043;-17
2022/10/28 01:00:50;;;;;;;20.17;11.73;;;11.50;81.00;;;;;;5072854;28;20033;-17
2022/10/28 01:03:16;;;;;;;19.60;12.05;;;11.50;81.10;;;;;;5072672;28;20036;-17
2022/10/28 01:05:45;;;;;;;21.33;12.45;;;11.50;81.10;;;;;;5072689;28;20438;-17
2022/10/28 01:08:12;;;;;;;18.85;11.10;;;11.50;81.20;;;;;;5072801;28;20025;-16
2022/10/28 01:10:58;;;;;;;18.77;11.82;;;11.50;81.30;;;;;;5072691;28;20054;-16
2022/10/28 01:13:34;;;;;;;22.42;13.75;;;11.50;81.70;;;;;;5073382;28;20036;-17
2022/10/28 01:16:37;;;;;;;23.52;13.95;;;11.50;81.30;;;;;;5071506;28;20114;-15
2022/10/28 01:19:21;;;;;;;18.75;11.20;;;11.50;81.50;;;;;;5072309;28;20035;-17
2022/10/28 01:21:59;;;;;;;16.65;10.75;;;11.50;81.50;;;;;;5073062;28;20020;-15
2022/10/28 01:24:54;;;;;;;17.85;10.52;;;11.50;81.50;;;;;;5072667;28;20031;-17
2022/10/28 01:27:57;;;;;;;13.73;8.52;;;11.40;81.50;;;;;;5030576;28;20079;-16
2022/10/28 01:30:26;;;;;;;16.30;9.82;;;11.40;81.40;;;;;;5032504;28;20029;-16
2022/10/28 01:33:03;;;;;;;15.18;9.25;;;11.50;81.30;;;;;;5034006;28;20025;-18
2022/10/28 01:35:52;;;;;;;13.73;9.20;;;11.50;81.40;;;;;;5034229;28;20104;-15
2022/10/28 01:38:34;;;;;;;15.38;10.45;;;11.40;81.40;;;;;;5033825;28;20042;-17
2022/10/28 01:41:03;;;;;;;13.52;9.30;;;11.40;81.50;;;;;;5034231;28;20026;-18
2022/10/28 01:44:08;;;;;;;11.38;7.95;;;11.40;81.70;;;;;;5033809;28;20533;-17
2022/10/28 01:46:39;;;;;;;;;;;11.40;81.40;;;;;;4937865;29;20043;-16
2022/10/28 01:49:11;;;;;;;38.53;8.27;;;11.30;81.70;;;;;;4936629;29;19907;-16
2022/10/28 01:51:45;;;;;;;11.73;7.88;;;11.30;81.70;;;;;;4937434;29;20119;-18
2022/10/28 01:54:16;;;;;;;12.60;8.32;;;11.20;81.50;;;;;;4936434;29;20051;-17
2022/10/28 01:56:44;;;;;;;14.32;8.55;;;11.20;81.50;;;;;;4936609;29;20043;-18
2022/10/28 01:59:15;;;;;;;15.98;9.73;;;11.20;81.50;;;;;;4936363;29;20028;-16
2022/10/28 02:01:41;;;;;;;15.13;9.77;;;11.20;81.50;;;;;;4936490;29;20485;-18
2022/10/28 02:04:07;;;;;;;11.70;7.22;;;11.10;81.50;;;;;;4974828;28;20074;-16
2022/10/28 02:06:33;;;;;;;15.73;9.82;;;11.10;81.40;;;;;;4994857;28;20034;-16
2022/10/28 02:09:14;;;;;;;14.95;8.27;;;11.10;81.40;;;;;;4993940;28;20065;-15
2022/10/28 02:11:50;;;;;;;15.23;9.32;;;11.10;81.40;;;;;;4994583;28;20119;-16
2022/10/28 02:14:32;;;;;;;16.67;9.85;;;11.10;81.40;;;;;;4994268;28;20081;-15
2022/10/28 02:17:04;;;;;;;18.23;9.70;;;11.10;81.50;;;;;;4993954;28;20030;-16
2022/10/28 02:19:35;;;;;;;14.10;9.82;;;11.10;81.50;;;;;;5000375;28;20030;-17
2022/10/28 02:22:08;;;;;;;13.63;9.48;;;11.00;81.50;;;;;;5075325;28;20032;-16
2022/10/28 02:24:39;;;;;;;15.00;10.00;;;10.90;81.70;;;;;;5075088;28;20040;-18
2022/10/28 02:27:21;;;;;;;20.35;9.95;;;10.90;81.50;;;;;;5075140;28;20024;-18
2022/10/28 02:29:58;;;;;;;16.48;10.20;;;10.90;81.60;;;;;;5075843;28;20043;-17
2022/10/28 02:32:26;;;;;;;17.17;11.00;;;10.80;81.70;;;;;;5075106;28;20017;-18
2022/10/28 02:34:55;;;;;;;14.38;9.23;;;10.80;81.80;;;;;;5074958;28;20017;-17
2022/10/28 02:37:30;;;;;;;17.90;10.70;;;10.80;81.90;;;;;;5075228;28;20438;-16
2022/10/28 02:40:06;;;;;;;23.50;12.57;;;10.80;81.90;;;;;;5074977;28;20546;-18
2022/10/28 02:42:37;;;;;;;18.60;11.30;;;10.80;81.90;;;;;;5074270;28;20025;-17
2022/10/28 02:45:14;;;;;;;17.90;10.80;;;10.80;82.20;;;;;;5074605;28;20029;-19
2022/10/28 02:47:46;;;;;;;16.35;9.27;;;10.70;82.20;;;;;;5075222;28;20448;-18
2022/10/28 02:50:17;;;;;;;15.73;8.80;;;10.70;82.10;;;;;;5075356;28;20082;-15
2022/10/28 02:52:49;;;;;;;13.27;8.75;;;10.70;82.10;;;;;;5074640;28;20588;-18
2022/10/28 02:55:15;;;;;;;13.18;8.52;;;10.60;82.20;;;;;;5074674;28;20067;-18
2022/10/28 02:57:43;;;;;;;14.77;8.45;;;10.60;82.40;;;;;;5074858;28;20098;-18
2022/10/28 03:00:14;;;;;;;16.52;9.38;;;10.60;82.30;;;;;;5074831;28;20089;-17
2022/10/28 03:02:40;;;;;;;16.80;10.23;;;10.60;82.20;;;;;;5074538;28;20028;-17
2022/10/28 03:05:07;;;;;;;12.82;7.45;;;10.60;82.40;;;;;;5074124;28;20032;-18
2022/10/28 03:07:33;;;;;;;13.32;8.60;;;10.50;82.30;;;;;;5074706;28;20020;-18
2022/10/28 03:09:58;;;;;;;15.32;10.35;;;10.50;82.30;;;;;;5074576;28;20031;-18
2022/10/28 03:12:24;;;;;;;19.27;11.38;;;10.50;82.30;;;;;;5072981;28;20054;-16
2022/10/28 03:14:50;;;;;;;19.35;12.27;;;10.50;82.40;;;;;;5074046;28;20021;-16
2022/10/28 03:17:16;;;;;;;17.58;9.35;;;10.50;82.50;;;;;;5074517;28;20032;-15
2022/10/28 03:19:42;;;;;;;13.95;7.82;;;10.50;82.50;;;;;;5074441;28;20484;-16
2022/10/28 03:22:08;;;;;;;15.05;8.82;;;10.50;82.50;;;;;;5074145;28;20496;-18
2022/10/28 03:24:34;;;;;;;14.38;8.68;;;10.40;82.60;;;;;;5074223;28;20115;-18
2022/10/28 03:27:00;;;;;;;17.00;10.88;;;10.50;82.70;;;;;;5073797;28;20491;-18
2022/10/28 03:29:25;;;;;;;12.43;8.80;;;10.40;82.60;;;;;;5072717;28;20032;-18
2022/10/28 03:31:51;;;;;;;14.88;8.57;;;10.40;82.60;;;;;;5074513;28;20047;-17
2022/10/28 03:34:17;;;;;;;12.98;9.07;;;10.40;82.60;;;;;;5073872;28;20024;-17
2022/10/28 03:36:43;;;;;;;11.63;7.93;;;10.40;82.60;;;;;;5073762;28;20094;-17
2022/10/28 03:39:09;;;;;;;13.15;8.73;;;10.40;82.60;;;;;;5072003;28;20083;-16
2022/10/28 03:41:37;;;;;;;14.48;9.02;;;10.30;82.40;;;;;;5074050;28;20032;-17
2022/10/28 03:44:04;;;;;;;14.20;9.52;;;10.30;82.40;;;;;;5073732;28;20037;-16
2022/10/28 03:46:30;;;;;;;13.77;8.50;;;10.30;82.40;;;;;;5073629;28;20028;-16
2022/10/28 03:48:56;;;;;;;16.73;9.60;;;10.30;82.50;;;;;;5074053;28;20028;-18
2022/10/28 03:51:22;;;;;;;13.27;8.57;;;10.30;82.50;;;;;;5073895;28;20388;-17
2022/10/28 03:53:48;;;;;;;19.00;11.48;;;10.30;82.40;;;;;;5072822;28;20066;-17
2022/10/28 03:56:14;;;;;;;17.63;10.80;;;10.30;82.50;;;;;;5073818;28;20464;-16
2022/10/28 03:58:39;;;;;;;21.70;12.45;;;10.30;82.60;;;;;;5073455;28;20474;-18
2022/10/28 04:01:05;;;;;;;20.75;12.10;;;10.30;82.50;;;;;;5073612;28;20090;-17
2022/10/28 04:03:31;;;;;;;17.17;11.75;;;10.30;82.70;;;;;;5073362;28;20098;-17
2022/10/28 04:05:57;;;;;;;16.77;10.13;;;10.30;82.70;;;;;;5073344;28;20059;-16
2022/10/28 04:08:23;;;;;;;16.42;9.80;;;10.30;82.60;;;;;;5073576;28;20028;-18
2022/10/28 04:10:50;;;;;;;14.15;8.98;;;10.30;82.80;;;;;;5073358;28;20024;-16
2022/10/28 04:13:16;;;;;;;17.20;11.02;;;10.30;82.70;;;;;;5073496;28;20067;-17
2022/10/28 04:15:42;;;;;;;16.20;10.77;;;10.30;82.80;;;;;;5073639;28;20052;-18
2022/10/28 04:18:08;;;;;;;15.70;9.30;;;10.30;82.90;;;;;;5073224;28;20021;-17
2022/10/28 04:20:35;;;;;;;15.48;9.07;;;10.30;83.00;;;;;;5073187;28;20025;-18
2022/10/28 04:23:01;;;;;;;17.42;9.57;;;10.30;82.90;;;;;;5073071;28;20039;-16
2022/10/28 04:25:27;;;;;;;18.20;10.95;;;10.30;82.90;;;;;;5073090;28;20407;-16
2022/10/28 04:27:53;;;;;;;21.48;13.75;;;10.30;83.00;;;;;;5073101;28;20036;-17
2022/10/28 04:30:19;;;;;;;21.42;12.68;;;10.30;83.10;;;;;;5074161;28;20024;-17
2022/10/28 04:32:46;;;;;;;23.02;12.30;;;10.30;83.00;;;;;;5072394;28;20032;-17
2022/10/28 04:35:13;;;;;;;16.52;10.68;;;10.30;83.10;;;;;;5072924;28;20028;-16
2022/10/28 04:37:40;;;;;;;14.43;9.82;;;10.30;83.20;;;;;;5072806;28;20024;-17
2022/10/28 04:40:08;;;;;;;15.05;10.02;;;10.30;83.10;;;;;;5073406;28;20029;-16
2022/10/28 04:42:34;;;;;;;15.30;9.38;;;10.30;83.10;;;;;;5073842;28;20533;-15
2022/10/28 04:45:00;;;;;;;20.92;11.18;;;10.30;83.10;;;;;;5073293;28;20031;-17
2022/10/28 04:47:26;;;;;;;15.10;9.35;;;10.20;83.00;;;;;;5073221;28;20044;-17
2022/10/28 04:49:53;;;;;;;15.50;9.80;;;10.30;83.10;;;;;;5073107;28;20036;-16
2022/10/28 04:52:19;;;;;;;17.30;9.35;;;10.30;82.90;;;;;;5073144;28;20025;-17
2022/10/28 04:54:45;;;;;;;15.73;9.57;;;10.30;82.90;;;;;;5073054;28;20029;-16
2022/10/28 04:57:11;;;;;;;12.10;8.60;;;10.20;82.80;;;;;;5072527;28;20024;-17
2022/10/28 04:59:37;;;;;;;18.63;11.02;;;10.20;82.80;;;;;;5072775;28;20020;-18
2022/10/28 05:02:03;;;;;;;14.02;9.32;;;10.20;82.80;;;;;;5072787;28;20081;-18
2022/10/28 05:04:29;;;;;;;13.55;8.23;;;10.10;82.90;;;;;;5073309;28;20028;-17
2022/10/28 05:06:55;;;;;;;15.57;9.25;;;10.10;83.00;;;;;;5077142;28;20029;-18
2022/10/28 05:09:20;;;;;;;14.23;9.15;;;10.10;83.00;;;;;;5076807;28;20036;-16
2022/10/28 05:11:46;;;;;;;17.33;10.43;;;10.10;83.00;;;;;;5076911;28;20380;-16
2022/10/28 05:14:12;;;;;;;14.43;8.32;;;10.10;82.90;;;;;;5076500;28;20389;-17
2022/10/28 05:16:38;;;;;;;15.40;9.02;;;10.00;82.90;;;;;;5076510;28;20028;-17
2022/10/28 05:19:04;;;;;;;17.65;10.77;;;10.10;82.80;;;;;;5076276;28;20025;-18
2022/10/28 05:21:30;;;;;;;15.40;9.73;;;10.00;82.80;;;;;;5076370;28;20021;-18
2022/10/28 05:23:56;;;;;;;16.50;9.40;;;10.00;82.90;;;;;;5076153;28;20492;-16
2022/10/28 05:26:22;;;;;;;21.00;11.85;;;10.00;83.00;;;;;;5076608;28;20031;-18
2022/10/28 05:28:51;;;;;;;17.80;9.98;;;10.00;83.00;;;;;;5076110;28;20107;-19
2022/10/28 05:31:17;;;;;;;21.00;9.75;;;10.00;83.00;;;;;;5076535;28;20023;-17
2022/10/28 05:33:43;;;;;;;12.18;7.57;;;10.00;83.10;;;;;;5076602;28;20075;-18
2022/10/28 05:36:09;;;;;;;17.42;10.45;;;10.00;83.10;;;;;;5076126;28;20036;-18
2022/10/28 05:38:35;;;;;;;21.48;11.23;;;10.00;83.00;;;;;;5075992;28;20143;-18
2022/10/28 05:41:02;;;;;;;17.63;9.25;;;10.00;83.00;;;;;;5075870;28;20064;-18
2022/10/28 05:43:28;;;;;;;16.02;8.95;;;10.00;83.00;;;;;;5076218;28;20055;-17
2022/10/28 05:45:56;;;;;;;20.02;11.73;;;9.90;82.90;;;;;;5076608;28;20472;-18
2022/10/28 05:48:23;;;;;;;17.23;9.45;;;10.00;83.10;;;;;;5075826;28;20029;-18
2022/10/28 05:50:49;;;;;;;13.88;8.65;;;9.90;83.10;;;;;;5074449;28;20494;-19
2022/10/28 05:53:15;;;;;;;18.85;10.95;;;9.90;83.00;;;;;;5075762;28;20028;-18
2022/10/28 05:55:41;;;;;;;21.17;10.52;;;9.90;83.10;;;;;;5076145;28;20109;-17
2022/10/28 05:58:08;;;;;;;14.80;8.93;;;9.90;83.10;;;;;;5075721;28;20564;-16
2022/10/28 06:00:35;;;;;;;14.10;8.48;;;9.90;83.10;;;;;;5076037;28;20024;-18
2022/10/28 06:03:09;;;;;;;15.57;9.30;;;9.90;83.20;;;;;;5075349;28;20518;-18
2022/10/28 06:05:45;;;;;;;20.08;10.90;;;9.90;83.20;;;;;;5076323;28;20017;-17
2022/10/28 06:08:12;;;;;;;18.25;10.35;;;9.90;83.20;;;;;;5075561;28;20074;-18
2022/10/28 06:10:40;;;;;;;17.83;9.75;;;10.00;83.20;;;;;;5076152;28;20028;-16
2022/10/28 06:13:07;;;;;;;13.73;9.93;;;10.00;83.20;;;;;;5075294;28;20041;-16
2022/10/28 06:15:33;;;;;;;14.82;9.40;;;10.10;83.40;;;;;;5075504;28;20086;-17
2022/10/28 06:17:59;;;;;;;20.17;10.52;;;10.20;83.70;;;;;;5075502;28;20464;-17
2022/10/28 06:20:25;;;;;;;28.98;12.52;;;10.30;83.90;;;;;;5075331;28;20480;-17
2022/10/28 06:22:53;;;;;;;19.42;10.68;;;10.40;84.10;;;;;;5075407;28;20051;-18
2022/10/28 06:25:21;;;;;;;27.00;11.60;;;10.50;84.20;;;;;;5075079;28;20024;-16
2022/10/28 06:27:59;;;;;;;17.63;9.35;;;10.60;84.50;;;;;;5075450;28;20036;-15
2022/10/28 06:30:26;;;;;;;48.47;10.40;;;10.80;84.80;;;;;;5073937;28;20075;-15
2022/10/28 06:32:55;;;;;;;27.92;10.70;;;10.90;84.80;;;;;;5074908;28;20484;-16
2022/10/28 06:35:21;;;;;;;22.98;9.93;;;11.10;84.90;;;;;;5075051;28;20063;-16
2022/10/28 06:37:46;;;;;;;18.02;9.30;;;11.30;84.90;;;;;;5074983;28;20045;-16
2022/10/28 06:40:12;;;;;;;21.17;9.00;;;11.50;84.90;;;;;;5074990;28;20537;-15
2022/10/28 06:42:38;;;;;;;32.85;8.93;;;11.70;84.90;;;;;;5074860;28;20021;-17
2022/10/28 06:45:05;;;;;;;15.40;7.13;;;11.90;84.90;;;;;;5074666;28;20103;-15
2022/10/28 06:47:32;;;;;;;15.82;8.02;;;12.10;84.80;;;;;;5075676;28;20024;-16
2022/10/28 06:49:58;;;;;;;16.65;8.88;;;12.40;84.70;;;;;;5075221;28;20090;-16
2022/10/28 06:52:24;;;;;;;12.80;7.68;;;12.60;84.50;;;;;;5074992;28;20013;-16
2022/10/28 06:54:50;;;;;;;13.82;8.00;;;12.90;84.20;;;;;;5074510;28;20052;-16
2022/10/28 06:57:16;;;;;;;12.63;7.97;;;13.10;83.80;;;;;;5074638;28;20079;-17
2022/10/28 06:59:42;;;;;;;11.98;7.53;;;13.40;83.20;;;;;;5074587;28;20056;-16
2022/10/28 07:02:11;;;;;;;11.80;7.85;;;13.70;82.60;;;;;;5074514;28;20429;-18
2022/10/28 07:04:37;;;;;;;12.82;8.15;;;14.00;81.80;;;;;;5074716;28;20402;-17
2022/10/28 07:07:04;;;;;;;14.10;8.35;;;14.30;81.30;;;;;;5074203;28;20048;-16
2022/10/28 07:09:30;;;;;;;14.02;7.70;;;14.60;80.70;;;;;;5074937;28;20078;-15
2022/10/28 07:11:56;;;;;;;13.18;7.78;;;14.90;80.20;;;;;;5143020;22;20057;-19
2022/10/28 07:14:22;;;;;;;19.15;8.65;;;15.20;79.70;;;;;;5074392;28;20082;-18
2022/10/28 07:16:47;;;;;;;14.20;8.10;;;15.50;79.10;;;;;;5072947;28;20082;-21
2022/10/28 07:19:13;;;;;;;15.68;9.52;;;15.80;78.50;;;;;;5074152;28;20086;-21
2022/10/28 07:21:40;;;;;;;13.55;8.75;;;16.00;78.00;;;;;;5074154;28;20055;-20
2022/10/28 07:24:06;;;;;;;13.38;8.30;;;16.20;77.40;;;;;;5074044;28;20028;-19
2022/10/28 07:26:32;;;;;;;14.35;8.18;;;16.30;76.90;;;;;;5074619;28;20070;-19
2022/10/28 07:28:58;;;;;;;13.13;6.95;;;16.40;76.60;;;;;;5073713;28;20029;-18
2022/10/28 07:31:24;;;;;;;14.05;8.88;;;16.40;76.30;;;;;;5074305;28;20031;-20
2022/10/28 07:33:53;;;;;;;13.77;8.57;;;16.50;76.30;;;;;;5074321;28;20044;-17
2022/10/28 07:36:20;;;;;;;13.85;8.50;;;16.50;76.10;;;;;;5074218;28;20476;-21
2022/10/28 07:38:50;;;;;;;15.25;8.60;;;16.50;76.30;;;;;;5073841;28;20032;-19
2022/10/28 07:41:17;;;;;;;14.82;8.73;;;16.50;76.20;;;;;;5074150;28;20025;-18
2022/10/28 07:43:43;;;;;;;15.60;9.15;;;16.60;76.00;;;;;;5073874;28;20024;-19
2022/10/28 07:46:09;;;;;;;18.45;10.50;;;16.60;75.80;;;;;;5072515;28;20032;-18
2022/10/28 07:48:36;;;;;;;14.82;9.70;;;16.50;75.80;;;;;;5074582;28;20598;-17
2022/10/28 07:51:04;;;;;;;18.70;9.88;;;16.50;75.70;;;;;;5073527;28;20017;-19
2022/10/28 07:53:31;;;;;;;16.65;10.45;;;16.40;75.80;;;;;;5074181;28;20019;-19
2022/10/28 07:56:00;;;;;;;17.50;10.15;;;16.40;76.00;;;;;;5073852;28;20052;-20
2022/10/28 07:58:26;;;;;;;17.92;11.18;;;16.30;76.00;;;;;;5073763;28;20035;-18
2022/10/28 08:00:53;;;;;;;17.58;11.45;;;16.30;76.00;;;;;;5073585;28;20064;-20
2022/10/28 08:03:19;;;;;;;16.33;9.65;;;16.30;76.10;;;;;;5073633;28;20550;-18
2022/10/28 08:05:46;;;;;;;15.27;11.05;;;16.30;76.10;;;;;;5073757;28;20027;-19
2022/10/28 08:08:12;;;;;;;12.38;9.07;;;16.30;76.10;;;;;;5073685;28;20103;-19
2022/10/28 08:10:38;;;;;;;15.23;10.10;;;16.30;76.00;;;;;;5073436;28;20486;-19
2022/10/28 08:13:05;;;;;;;16.85;9.30;;;16.40;76.00;;;;;;5072876;28;20087;-19
2022/10/28 08:15:32;;;;;;;16.77;10.38;;;16.40;76.00;;;;;;5074158;28;20028;-19
2022/10/28 08:17:57;;;;;;;13.63;9.63;;;16.50;75.60;;;;;;5073503;28;20017;-19
2022/10/28 08:20:24;;;;;;;16.65;9.68;;;16.60;75.30;;;;;;5073892;28;20070;-19
2022/10/28 08:22:50;;;;;;;15.40;8.55;;;16.70;75.10;;;;;;5073102;28;20032;-19
2022/10/28 08:25:16;;;;;;;12.52;8.80;;;16.90;74.90;;;;;;5073606;28;20025;-19
2022/10/28 08:27:42;;;;;;;14.70;9.40;;;17.00;74.70;;;;;;5073251;28;20549;-18
2022/10/28 08:30:09;;;;;;;23.73;9.43;;;17.20;74.10;;;;;;5073102;28;20051;-18
2022/10/28 08:32:35;;;;;;;13.20;8.25;;;17.40;73.80;;;;;;5073312;28;20020;-19
2022/10/28 08:35:01;;;;;;;13.35;8.55;;;17.60;73.10;;;;;;5073041;28;20028;-19
2022/10/28 08:37:27;;;;;;;14.30;7.80;;;17.90;72.80;;;;;;5073096;28;20028;-20
2022/10/28 08:39:53;;;;;;;12.80;7.93;;;18.20;72.50;;;;;;5071254;28;20021;-18
2022/10/28 08:42:45;;;;;;;12.25;8.05;;;18.40;72.10;;;;;;5073212;28;20507;-18
2022/10/28 08:45:43;;;;;;;13.98;7.95;;;18.70;71.90;;;;;;5072732;28;20024;-19
2022/10/28 08:48:19;;;;;;;13.98;7.22;;;19.00;71.90;;;;;;5073030;28;20079;-18
2022/10/28 08:50:55;;;;;;;13.75;8.48;;;19.40;71.10;;;;;;5073140;28;20013;-20
2022/10/28 08:53:29;;;;;;;17.45;8.00;;;19.80;70.10;;;;;;5071773;28;20050;-19
2022/10/28 08:59:28;;;;;;;13.98;7.90;;;20.20;68.70;;;;;;5073222;28;20023;-17
2022/10/28 09:02:02;;;;;;;11.75;6.65;;;20.40;68.40;;;;;;5073166;28;20044;-17
2022/10/28 09:04:43;;;;;;;11.48;6.78;;;20.50;68.50;;;;;;5073114;28;20078;-17
2022/10/28 09:07:17;;;;;;;11.82;7.43;;;20.70;68.50;;;;;;5073058;28;20507;-19
2022/10/28 09:09:44;;;;;;;15.50;7.55;;;21.00;68.10;;;;;;5073107;28;20033;-18
2022/10/28 09:12:36;;;;;;;11.80;6.68;;;21.40;67.40;;;;;;5072456;28;20064;-20
2022/10/28 09:15:05;;;;;;;12.65;7.00;;;21.70;65.90;;;;;;5069811;28;20025;-17
2022/10/28 09:17:49;;;;;;;14.38;8.18;;;21.80;65.30;;;;;;5073837;28;20456;-18
2022/10/28 09:20:30;;;;;;;13.63;6.85;;;21.90;64.70;;;;;;5071454;28;20031;-17
2022/10/28 09:23:04;;;;;;;13.50;6.57;;;22.00;64.30;;;;;;5072538;28;20020;-17
2022/10/28 09:25:42;;;;;;;11.15;5.35;;;22.00;64.30;;;;;;5072592;28;20024;-17
2022/10/28 09:28:22;;;;;;;11.00;5.47;;;22.20;64.40;;;;;;5072823;28;20060;-17
2022/10/28 09:31:09;;;;;;;11.30;5.85;;;22.50;63.60;;;;;;5072589;28;20506;-18
2022/10/28 09:33:40;;;;;;;11.70;5.22;;;22.70;62.90;;;;;;5072220;28;20043;-19
2022/10/28 09:36:15;;;;;;;12.45;6.47;;;22.90;62.70;;;;;;5072841;28;20029;-17
2022/10/28 09:38:43;;;;;;;9.45;5.85;;;23.10;62.10;;;;;;5072864;28;20074;-17
2022/10/28 09:41:25;;;;;;;10.43;5.85;;;23.40;61.90;;;;;;5072517;28;20025;-18
2022/10/28 09:44:06;;;;;;;15.52;6.97;;;23.60;60.90;;;;;;5072393;28;20028;-17
2022/10/28 09:46:32;;;;;;;17.65;7.93;;;23.80;61.00;;;;;;5072430;28;20020;-18
2022/10/28 09:49:05;;;;;;;11.38;6.05;;;24.00;60.60;;;;;;5072135;28;20075;-17
2022/10/28 09:51:37;;;;;;;10.60;6.10;;;24.10;60.30;;;;;;5073297;28;20021;-20
2022/10/28 09:54:03;;;;;;;15.15;6.30;;;24.40;58.60;;;;;;5076188;28;20017;-17
2022/10/28 09:56:29;;;;;;;11.73;5.88;;;24.60;58.60;;;;;;5075881;28;20024;-17
2022/10/28 09:59:01;;;;;;;8.20;5.22;;;24.70;57.80;;;;;;5075899;28;20037;-18
2022/10/28 10:01:32;;;;;;;11.70;6.50;;;24.90;57.20;;;;;;5076665;28;20025;-17
2022/10/28 10:03:59;;;;;;;10.00;4.90;;;25.20;56.30;;;;;;5075674;28;20037;-19
2022/10/28 10:06:36;;;;;;;9.20;4.55;;;25.50;55.70;;;;;;5075995;28;20024;-18
2022/10/28 10:09:03;;;;;;;16.08;5.13;;;25.90;55.10;;;;;;5075506;28;20035;-18
2022/10/28 10:11:41;;;;;;;10.82;4.97;;;26.10;53.90;;;;;;5075893;28;20111;-18
2022/10/28 10:14:16;;;;;;;12.68;5.43;;;26.30;53.20;;;;;;5075563;28;20376;-20
2022/10/28 10:16:58;;;;;;;8.90;4.82;;;26.40;52.40;;;;;;5076150;28;20028;-17
2022/10/28 10:19:24;;;;;;;9.63;4.72;;;26.50;52.70;;;;;;5075462;28;20040;-17
2022/10/28 10:21:54;;;;;;;9.82;5.15;;;26.90;52.40;;;;;;5075416;28;20028;-17
2022/10/28 10:24:34;;;;;;;9.27;5.90;;;27.40;50.70;;;;;;5075872;28;20094;-17
2022/10/28 10:27:20;;;;;;;7.85;4.25;;;27.90;48.50;;;;;;5075110;28;20036;-16
2022/10/28 10:29:52;;;;;;;12.35;6.32;;;28.20;48.20;;;;;;5129456;22;20056;-16
2022/10/28 10:32:35;;;;;;;9.98;5.10;;;28.30;47.00;;;;;;5075200;28;20383;-15
2022/10/28 10:35:12;;;;;;;7.80;5.10;;;28.30;47.00;;;;;;5075026;28;20143;-15
2022/10/28 10:37:44;;;;;;;15.25;7.50;;;28.40;47.40;;;;;;5075112;28;20035;-15
2022/10/28 10:40:17;;;;;;;10.38;5.93;;;28.50;46.60;;;;;;5075726;28;20031;-15
2022/10/28 10:42:43;;;;;;;;;;;28.50;46.10;;;;;;5075726;28;20431;-15
2022/10/28 10:45:30;;;;;;;13.80;6.35;;;28.50;46.90;;;;;;5074648;28;19908;-15
2022/10/28 10:48:17;;;;;;;13.05;8.73;;;28.70;47.00;;;;;;5074738;28;20047;-16
2022/10/28 10:50:46;;;;;;;12.73;7.53;;;29.00;45.50;;;;;;5074991;28;20024;-16
2022/10/28 10:53:31;;;;;;;16.08;8.25;;;29.10;45.40;;;;;;5074634;28;20144;-15
2022/10/28 10:56:07;;;;;;;15.73;8.55;;;28.90;44.80;;;;;;5075360;28;20017;-16
2022/10/28 10:58:48;;;;;;;14.38;8.40;;;28.70;45.70;;;;;;5075077;28;20483;-15
2022/10/28 11:01:20;;;;;;;13.70;7.70;;;28.60;45.40;;;;;;5074929;28;20028;-15
2022/10/28 11:03:52;;;;;;;11.30;7.75;;;28.50;45.60;;;;;;5074131;28;20480;-14
2022/10/28 11:06:52;;;;;;;10.95;6.25;;;28.30;45.80;;;;;;5074597;28;20492;-15
2022/10/28 11:09:33;;;;;;;13.18;7.68;;;28.10;43.20;;;;;;5052438;28;20064;-15
2022/10/28 11:12:00;;;;;;;11.82;6.57;;;28.20;45.70;;;;;;5052410;28;20480;-15
2022/10/28 11:14:31;;;;;;;15.27;9.30;;;28.20;46.40;;;;;;5052468;28;20096;-15
2022/10/28 11:17:02;;;;;;;15.15;9.25;;;28.40;45.50;;;;;;5052237;28;20029;-14
2022/10/28 11:19:28;;;;;;;11.57;7.47;;;28.30;45.40;;;;;;5052369;28;20033;-15
2022/10/28 11:22:16;;;;;;;16.42;9.45;;;28.10;46.30;;;;;;5052650;28;20052;-16
2022/10/28 11:24:55;;;;;;;19.02;11.20;;;28.00;46.30;;;;;;5052062;28;20075;-15
2022/10/28 11:27:39;;;;;;;16.90;9.65;;;28.00;46.60;;;;;;5052143;28;20025;-15
2022/10/28 11:30:13;;;;;;;14.50;9.00;;;28.10;46.70;;;;;;5051668;28;20049;-15
2022/10/28 11:32:38;;;;;;;15.55;10.40;;;28.40;46.50;;;;;;5051928;28;20029;-15
2022/10/28 11:35:51;;;;;;;20.30;11.38;;;28.70;45.40;;;;;;5052307;28;20021;-15
2022/10/28 11:38:23;;;;;;;18.63;10.88;;;29.20;44.30;;;;;;5049660;28;20036;-15
2022/10/28 11:41:00;;;;;;;20.30;10.85;;;29.40;44.90;;;;;;5034896;28;20025;-15
2022/10/28 11:43:29;;;;;;;15.73;9.48;;;29.40;45.00;;;;;;5052221;28;20512;-15
2022/10/28 11:46:10;;;;;;;19.40;12.02;;;29.40;45.00;;;;;;5072419;28;20041;-14
2022/10/28 11:48:54;;;;;;;17.35;10.70;;;29.70;44.10;;;;;;5074025;28;20032;-14
2022/10/28 11:51:25;;;;;;;20.42;12.88;;;29.70;44.00;;;;;;5074250;28;20074;-15
2022/10/28 11:54:03;;;;;;;13.45;8.50;;;29.70;44.00;;;;;;5073895;28;20029;-15
2022/10/28 11:56:47;;;;;;;21.08;11.65;;;29.60;44.50;;;;;;5073586;28;20494;-15
2022/10/28 11:59:19;;;;;;;13.52;8.18;;;29.50;43.80;;;;;;5073995;28;20027;-15
2022/10/28 12:02:25;;;;;;;15.93;8.73;;;29.40;44.30;;;;;;5073791;28;20542;-15
2022/10/28 12:05:38;;;;;;;14.05;8.45;;;29.60;43.30;;;;;;5073368;28;20408;-14
2022/10/28 12:08:40;;;;;;;18.50;9.82;;;29.80;44.30;;;;;;5051763;28;20055;-14
2022/10/28 12:11:32;;;;;;;16.80;9.63;;;30.00;43.60;;;;;;5051079;28;20067;-14
2022/10/28 12:14:24;;;;;;;16.48;10.55;;;30.10;43.70;;;;;;5044487;28;20482;-15
2022/10/28 12:16:56;;;;;;;14.45;7.25;;;30.10;43.30;;;;;;5049186;28;20505;-15
2022/10/28 12:19:24;;;;;;;12.30;7.95;;;29.90;43.80;;;;;;5051115;28;20033;-15
2022/10/28 12:22:08;;;;;;;13.43;8.18;;;30.10;44.10;;;;;;5051045;28;20462;-15
2022/10/28 12:24:37;;;;;;;11.80;7.50;;;30.60;42.40;;;;;;5051286;28;20033;-15
2022/10/28 12:27:16;;;;;;;11.70;7.20;;;31.00;42.20;;;;;;5050864;28;20048;-15
2022/10/28 12:29:48;;;;;;;16.80;8.52;;;31.50;41.20;;;;;;5050842;28;20231;-15
2022/10/28 12:32:25;;;;;;;15.65;7.40;;;31.80;40.40;;;;;;5051467;28;20028;-14
2022/10/28 12:35:04;;;;;;;15.18;8.27;;;32.10;40.00;;;;;;5051341;28;20090;-15
2022/10/28 12:37:41;;;;;;;12.90;7.63;;;32.40;38.90;;;;;;5051093;28;20029;-15
2022/10/28 12:40:21;;;;;;;15.55;7.45;;;32.70;39.10;;;;;;5051088;28;20055;-14
2022/10/28 12:42:58;;;;;;;10.70;6.47;;;32.90;38.60;;;;;;5068872;28;20496;-14
2022/10/28 12:45:26;;;;;;;17.48;6.80;;;33.10;38.70;;;;;;5073136;28;20021;-15
2022/10/28 12:48:17;;;;;;;14.15;8.73;;;33.20;38.30;;;;;;5072921;28;20078;-15
2022/10/28 12:50:53;;;;;;;17.17;6.85;;;33.40;37.70;;;;;;5073117;28;20020;-15
2022/10/28 12:53:48;;;;;;;12.93;7.20;;;33.20;38.20;;;;;;5073460;28;20517;-15
2022/10/28 12:56:39;;;;;;;15.18;8.50;;;33.20;38.60;;;;;;5071685;28;20422;-15
2022/10/28 12:59:14;;;;;;;22.33;9.02;;;33.10;38.30;;;;;;5071715;28;20024;-15
2022/10/28 13:01:45;;;;;;;20.30;8.13;;;32.80;39.00;;;;;;5073212;28;20047;-14